createdAt,value
2022-09-14T00:02:06.781Z,1.83
2022-09-14T00:04:40.171Z,1.70
2022-09-14T00:07:10.658Z,1.40
2022-09-14T00:09:40.666Z,1.70
2022-09-14T00:12:11.638Z,1.42
2022-09-14T00:14:41.878Z,1.75
2022-09-14T00:17:12.532Z,1.67
2022-09-14T00:22:11.888Z,1.92
2022-09-14T00:24:42.346Z,1.60
2022-09-14T00:27:14.829Z,1.42
2022-09-14T00:29:45.669Z,1.40
2022-09-14T00:32:15.838Z,1.60
2022-09-14T00:34:46.381Z,1.75
2022-09-14T00:37:16.390Z,1.55
2022-09-14T00:39:47.006Z,1.60
2022-09-14T00:44:48.048Z,2.03
2022-09-14T00:47:18.842Z,1.50
2022-09-14T00:49:50.012Z,1.65
2022-09-14T00:52:29.339Z,1.35
2022-09-14T00:55:07.086Z,1.27
2022-09-14T00:57:44.730Z,1.38
2022-09-14T01:00:18.291Z,1.60
2022-09-14T01:02:48.946Z,1.65
2022-09-14T01:05:20.045Z,1.80
2022-09-14T01:08:07.987Z,1.52
2022-09-14T01:10:51.492Z,1.50
2022-09-14T01:13:41.573Z,1.77
2022-09-14T01:16:47.622Z,1.75
2022-09-14T01:19:25.926Z,1.42
2022-09-14T01:22:02.621Z,1.10
2022-09-14T01:24:50.468Z,1.70
2022-09-14T01:27:23.398Z,1.73
2022-09-14T01:30:04.496Z,1.75
2022-09-14T01:32:54.647Z,0.80
2022-09-14T01:35:58.737Z,1.65
2022-09-14T01:38:35.755Z,1.40
2022-09-14T01:41:11.610Z,1.55
2022-09-14T01:43:47.616Z,1.60
2022-09-14T01:46:37.906Z,1.20
2022-09-14T01:49:19.907Z,1.60
2022-09-14T01:51:55.405Z,1.65
2022-09-14T01:54:47.502Z,1.67
2022-09-14T01:57:25.636Z,2.20
2022-09-14T02:00:01.525Z,1.67
2022-09-14T02:02:56.634Z,1.55
2022-09-14T02:05:32.598Z,1.17
2022-09-14T02:08:03.216Z,1.20
2022-09-14T02:10:34.229Z,1.40
2022-09-14T02:13:04.448Z,1.50
2022-09-14T02:15:36.711Z,0.90
2022-09-14T02:18:07.139Z,1.42
2022-09-14T02:20:54.658Z,1.60
2022-09-14T02:23:27.631Z,1.70
2022-09-14T02:25:58.186Z,1.38
2022-09-14T02:28:28.199Z,1.08
2022-09-14T02:31:23.682Z,1.20
2022-09-14T02:34:30.631Z,1.33
2022-09-14T02:37:12.296Z,1.20
2022-09-14T02:40:15.470Z,1.52
2022-09-14T02:43:28.063Z,1.08
2022-09-14T02:46:13.054Z,1.40
2022-09-14T02:48:54.138Z,1.38
2022-09-14T02:51:35.363Z,1.10
2022-09-14T02:54:21.242Z,1.10
2022-09-14T02:56:51.516Z,1.35
2022-09-14T02:59:22.078Z,1.17
2022-09-14T03:01:52.118Z,1.40
2022-09-14T03:04:21.937Z,1.20
2022-09-14T03:06:52.277Z,1.13
2022-09-14T03:09:22.229Z,1.42
2022-09-14T03:11:52.549Z,0.80
2022-09-14T03:14:22.514Z,1.00
2022-09-14T03:16:52.880Z,0.93
2022-09-14T03:19:22.964Z,1.00
2022-09-14T03:21:53.492Z,1.23
2022-09-14T03:26:53.340Z,1.45
2022-09-14T03:29:24.034Z,1.30
2022-09-14T03:31:54.218Z,0.85
2022-09-14T03:34:24.595Z,1.25
2022-09-14T03:36:55.020Z,1.33
2022-09-14T03:39:25.617Z,1.35
2022-09-14T03:41:56.390Z,1.40
2022-09-14T03:44:27.219Z,1.25
2022-09-14T03:46:57.655Z,1.42
2022-09-14T03:49:27.754Z,1.27
2022-09-14T03:51:59.885Z,1.25
2022-09-14T03:54:30.149Z,1.50
2022-09-14T03:56:59.894Z,1.30
2022-09-14T04:02:01.820Z,1.70
2022-09-14T04:04:32.459Z,1.30
2022-09-14T04:07:02.824Z,1.30
2022-09-14T04:09:33.338Z,1.42
2022-09-14T04:14:32.644Z,1.45
2022-09-14T04:17:03.706Z,1.67
2022-09-14T04:19:38.570Z,1.50
2022-09-14T04:22:09.330Z,1.35
2022-09-14T04:24:39.434Z,1.98
2022-09-14T04:27:09.863Z,2.38
2022-09-14T04:29:39.964Z,2.20
2022-09-14T04:32:10.505Z,1.70
2022-09-14T04:37:10.160Z,1.80
2022-09-14T04:39:40.912Z,1.92
2022-09-14T04:42:10.903Z,2.22
2022-09-14T04:44:41.573Z,2.00
2022-09-14T04:47:11.667Z,1.60
2022-09-14T04:49:42.523Z,1.58
2022-09-14T04:54:42.078Z,1.60
2022-09-14T04:57:12.198Z,1.50
2022-09-14T04:59:42.319Z,1.52
2022-09-14T05:02:12.863Z,1.35
2022-09-14T05:07:14.297Z,1.40
2022-09-14T05:09:44.734Z,1.80
2022-09-14T05:12:15.212Z,1.30
2022-09-14T05:14:45.201Z,1.27
2022-09-14T05:17:15.900Z,1.23
2022-09-14T05:19:46.019Z,1.40
2022-09-14T05:22:19.976Z,1.40
2022-09-14T05:24:50.099Z,1.20
2022-09-14T05:27:19.870Z,1.65
2022-09-14T05:29:50.285Z,1.13
2022-09-14T05:32:20.335Z,1.40
2022-09-14T05:34:50.738Z,1.25
2022-09-14T05:37:21.205Z,1.30
2022-09-14T05:39:51.732Z,1.10
2022-09-14T05:42:22.045Z,1.10
2022-09-14T05:44:52.628Z,1.10
2022-09-14T05:49:51.903Z,0.98
2022-09-14T05:52:25.916Z,1.40
2022-09-14T05:54:55.986Z,1.02
2022-09-14T05:57:25.838Z,1.23
2022-09-14T05:59:56.218Z,1.80
2022-09-14T06:02:26.577Z,0.93
2022-09-14T06:04:57.029Z,0.90
2022-09-14T06:07:26.947Z,1.27
2022-09-14T06:09:57.373Z,0.82
2022-09-14T06:12:28.526Z,1.02
2022-09-14T06:14:59.475Z,1.40
2022-09-14T06:17:32.349Z,1.17
2022-09-14T06:20:04.855Z,1.48
2022-09-14T06:22:35.782Z,1.27
2022-09-14T06:25:06.442Z,1.10
2022-09-14T06:27:36.637Z,1.20
2022-09-14T06:30:07.818Z,1.13
2022-09-14T06:32:37.833Z,1.38
2022-09-14T06:35:12.312Z,1.10
2022-09-14T06:37:42.677Z,1.13
2022-09-14T06:40:13.305Z,1.17
2022-09-14T06:45:12.854Z,1.40
2022-09-14T06:47:43.302Z,1.60
2022-09-14T06:50:13.435Z,1.45
2022-09-14T06:52:44.293Z,1.80
2022-09-14T06:55:14.301Z,1.88
2022-09-14T06:57:44.814Z,2.05
2022-09-14T07:00:15.462Z,1.60
2022-09-14T07:02:51.285Z,1.70
2022-09-14T07:05:24.063Z,1.63
2022-09-14T07:07:54.987Z,1.70
2022-09-14T07:10:29.317Z,1.60
2022-09-14T07:13:02.922Z,1.20
2022-09-14T07:15:33.010Z,1.55
2022-09-14T07:18:03.465Z,1.40
2022-09-14T07:20:34.925Z,1.83
2022-09-14T07:23:05.344Z,1.45
2022-09-14T07:25:35.390Z,1.45
2022-09-14T07:28:05.907Z,1.45
2022-09-14T07:30:40.023Z,1.27
2022-09-14T07:33:10.501Z,1.20
2022-09-14T07:35:40.483Z,1.10
2022-09-14T07:38:10.970Z,1.40
2022-09-14T07:40:40.988Z,1.40
2022-09-14T07:43:11.158Z,1.30
2022-09-14T07:45:41.552Z,1.05
2022-09-14T07:48:11.955Z,1.27
2022-09-14T07:50:42.524Z,1.67
2022-09-14T07:53:12.660Z,1.80
2022-09-14T07:55:43.139Z,1.50
2022-09-14T07:58:12.994Z,1.27
2022-09-14T08:00:43.442Z,1.60
2022-09-14T08:03:13.235Z,1.60
2022-09-14T08:05:43.531Z,1.50
2022-09-14T08:08:13.305Z,2.03
2022-09-14T08:10:43.454Z,1.52
2022-09-14T08:13:13.984Z,2.08
2022-09-14T08:15:44.341Z,2.30
2022-09-14T08:18:14.286Z,2.45
2022-09-14T08:20:44.548Z,2.47
2022-09-14T08:23:14.327Z,2.42
2022-09-14T08:25:46.711Z,3.08
2022-09-14T08:28:16.626Z,2.70
2022-09-14T08:30:46.629Z,2.25
2022-09-14T08:33:16.575Z,2.50
2022-09-14T08:35:57.820Z,2.28
2022-09-14T08:38:28.923Z,2.38
2022-09-14T08:43:29.183Z,1.90
2022-09-14T08:46:06.024Z,1.70
2022-09-14T08:48:40.908Z,1.33
2022-09-14T08:51:11.318Z,1.80
2022-09-14T08:53:42.951Z,1.70
2022-09-14T08:56:23.773Z,1.60
2022-09-14T08:59:11.623Z,1.85
2022-09-14T09:01:56.191Z,1.77
2022-09-14T09:04:56.597Z,2.42
2022-09-14T09:07:50.019Z,2.08
2022-09-14T09:10:21.362Z,1.63
2022-09-14T09:12:55.840Z,1.40
2022-09-14T09:15:25.678Z,1.42
2022-09-14T09:20:34.704Z,1.90
2022-09-14T09:23:10.245Z,1.45
2022-09-14T09:26:01.826Z,1.80
2022-09-14T09:28:33.479Z,1.75
2022-09-14T09:31:12.696Z,2.38
2022-09-14T09:34:21.417Z,2.00
2022-09-14T09:36:51.795Z,2.10
2022-09-14T09:39:22.247Z,2.47
2022-09-14T09:41:58.855Z,2.17
2022-09-14T09:44:29.608Z,2.13
2022-09-14T09:49:37.373Z,1.95
2022-09-14T09:52:15.666Z,2.20
2022-09-14T09:54:53.496Z,1.90
2022-09-14T09:57:30.251Z,2.40
2022-09-14T10:00:24.058Z,2.53
2022-09-14T10:02:56.230Z,2.00
2022-09-14T10:05:34.205Z,2.28
2022-09-14T10:08:11.295Z,2.00
2022-09-14T10:10:45.655Z,1.95
2022-09-14T10:13:38.224Z,2.20
2022-09-14T10:16:19.050Z,2.40
2022-09-14T10:18:51.176Z,2.10
2022-09-14T10:21:24.091Z,2.45
2022-09-14T10:24:33.757Z,2.38
2022-09-14T10:27:04.095Z,2.20
2022-09-14T10:29:56.154Z,2.60
2022-09-14T10:32:27.860Z,2.40
2022-09-14T10:34:57.964Z,2.20
2022-09-14T10:37:46.345Z,2.55
2022-09-14T10:40:21.238Z,1.83
2022-09-14T10:43:15.713Z,2.03
2022-09-14T10:46:02.426Z,2.65
2022-09-14T10:48:51.415Z,2.40
2022-09-14T10:51:44.190Z,2.55
2022-09-14T10:54:54.389Z,2.58
2022-09-14T10:57:50.527Z,2.35
2022-09-14T11:00:22.595Z,2.72
2022-09-14T11:03:13.605Z,2.80
2022-09-14T11:06:02.348Z,2.38
2022-09-14T11:08:52.642Z,2.42
2022-09-14T11:14:04.382Z,2.17
2022-09-14T11:17:11.935Z,2.17
2022-09-14T11:20:02.981Z,1.98
2022-09-14T11:22:48.092Z,2.30
2022-09-14T11:25:44.336Z,1.60
2022-09-14T11:28:30.952Z,2.13
2022-09-14T11:31:23.068Z,1.63
2022-09-14T11:33:59.793Z,1.58
2022-09-14T11:36:37.745Z,1.75
2022-09-14T11:39:18.316Z,1.63
2022-09-14T11:41:54.825Z,1.70
2022-09-14T11:44:35.064Z,1.60
2022-09-14T11:47:14.251Z,2.10
2022-09-14T11:50:08.699Z,1.67
2022-09-14T11:52:39.066Z,1.42
2022-09-14T11:55:18.642Z,1.92
2022-09-14T11:57:49.950Z,1.70
2022-09-14T12:00:26.546Z,1.55
2022-09-14T12:03:03.049Z,1.50
2022-09-14T12:05:34.953Z,1.55
2022-09-14T12:08:26.390Z,1.58
2022-09-14T12:11:12.227Z,2.03
2022-09-14T12:13:42.384Z,1.90
2022-09-14T12:16:13.584Z,1.60
2022-09-14T12:18:46.493Z,1.75
2022-09-14T12:21:26.934Z,1.60
2022-09-14T12:23:58.978Z,1.63
2022-09-14T12:26:36.556Z,1.50
2022-09-14T12:29:33.977Z,2.03
2022-09-14T12:32:08.207Z,1.60
2022-09-14T12:34:38.754Z,1.67
2022-09-14T12:37:31.272Z,1.80
2022-09-14T12:40:35.498Z,1.20
2022-09-14T12:43:36.467Z,1.17
2022-09-14T12:46:24.778Z,1.27
2022-09-14T12:49:24.095Z,2.17
2022-09-14T12:51:58.125Z,1.70
2022-09-14T12:54:33.675Z,1.55
2022-09-14T12:57:12.785Z,1.42
2022-09-14T12:59:43.472Z,1.10
2022-09-14T13:02:25.467Z,1.25
2022-09-14T13:04:59.149Z,1.83
2022-09-14T13:07:37.364Z,1.75
2022-09-14T13:10:09.458Z,1.45
2022-09-14T13:12:43.473Z,1.10
2022-09-14T13:15:16.733Z,1.10
2022-09-14T13:18:28.508Z,1.08
2022-09-14T13:21:01.260Z,0.98
2022-09-14T13:23:40.996Z,1.52
2022-09-14T13:26:27.301Z,1.33
2022-09-14T13:29:02.550Z,1.27
2022-09-14T13:31:39.203Z,1.10
2022-09-14T13:34:16.095Z,1.35
2022-09-14T13:36:46.724Z,1.25
2022-09-14T13:39:36.922Z,0.90
2022-09-14T13:42:08.674Z,1.10
2022-09-14T13:44:49.144Z,0.82
2022-09-14T13:47:25.033Z,1.10
2022-09-14T13:49:56.893Z,1.33
2022-09-14T13:52:43.547Z,1.15
2022-09-14T13:55:23.972Z,1.10
2022-09-14T13:58:27.551Z,0.80
2022-09-14T14:03:42.880Z,1.10
2022-09-14T14:06:28.222Z,0.93
2022-09-14T14:09:09.142Z,1.10
2022-09-14T14:11:42.950Z,1.25
2022-09-14T14:14:19.023Z,1.25
2022-09-14T14:17:23.730Z,0.90
2022-09-14T14:19:56.787Z,1.25
2022-09-14T14:22:38.735Z,0.88
2022-09-14T14:25:29.902Z,1.10
2022-09-14T14:28:08.352Z,1.77
2022-09-14T14:30:42.526Z,0.98
2022-09-14T14:33:19.734Z,1.23
2022-09-14T14:35:54.977Z,1.00
2022-09-14T14:38:26.379Z,1.05
2022-09-14T14:40:59.126Z,1.30
2022-09-14T14:43:29.652Z,1.10
2022-09-14T14:46:03.039Z,1.40
2022-09-14T14:48:33.395Z,0.90
2022-09-14T14:51:03.959Z,1.45
2022-09-14T14:53:34.122Z,1.00
2022-09-14T14:56:04.236Z,1.52
2022-09-14T14:58:36.463Z,1.25
2022-09-14T15:01:06.993Z,1.05
2022-09-14T15:03:37.881Z,0.88
2022-09-14T15:06:21.745Z,1.10
2022-09-14T15:08:58.844Z,0.85
2022-09-14T15:13:58.999Z,0.93
2022-09-14T15:16:29.303Z,1.00
2022-09-14T15:18:59.894Z,1.10
2022-09-14T15:21:30.023Z,0.88
2022-09-14T15:24:00.607Z,1.67
2022-09-14T15:26:30.747Z,1.25
2022-09-14T15:29:01.895Z,1.40
2022-09-14T15:31:35.876Z,1.27
2022-09-14T15:34:06.611Z,1.25
2022-09-14T15:36:39.403Z,1.13
2022-09-14T15:39:14.921Z,1.50
2022-09-14T15:41:45.495Z,1.00
2022-09-14T15:44:16.776Z,0.90
2022-09-14T15:46:48.038Z,1.00
2022-09-14T15:49:24.376Z,0.90
2022-09-14T15:51:56.705Z,1.08
2022-09-14T15:54:32.728Z,1.30
2022-09-14T15:57:03.190Z,0.90
2022-09-14T15:59:34.700Z,1.10
2022-09-14T16:02:05.848Z,1.45
2022-09-14T16:04:40.809Z,1.48
2022-09-14T16:07:11.386Z,0.95
2022-09-14T16:09:43.939Z,1.27
2022-09-14T16:12:15.509Z,1.48
2022-09-14T16:14:46.151Z,1.20
2022-09-14T16:17:16.884Z,1.20
2022-09-14T16:19:50.334Z,1.70
2022-09-14T16:22:20.992Z,1.30
2022-09-14T16:24:53.019Z,1.80
2022-09-14T16:27:24.653Z,1.02
2022-09-14T16:29:55.318Z,1.60
2022-09-14T16:32:26.023Z,1.27
2022-09-14T16:34:57.059Z,1.30
2022-09-14T16:37:27.999Z,1.30
2022-09-14T16:39:58.812Z,1.63
2022-09-14T16:42:29.558Z,1.30
2022-09-14T16:45:00.223Z,1.70
2022-09-14T16:47:30.676Z,1.95
2022-09-14T16:50:04.066Z,1.55
2022-09-14T16:52:34.967Z,1.70
2022-09-14T16:55:05.871Z,1.80
2022-09-14T16:57:36.261Z,1.50
2022-09-14T17:00:07.345Z,1.60
2022-09-14T17:02:37.932Z,1.48
2022-09-14T17:05:09.350Z,1.92
2022-09-14T17:07:39.676Z,1.60
2022-09-14T17:10:10.723Z,1.27
2022-09-14T17:12:41.329Z,1.60
2022-09-14T17:15:12.470Z,1.25
2022-09-14T17:17:42.897Z,1.52
2022-09-14T17:20:13.530Z,1.27
2022-09-14T17:22:44.077Z,1.13
2022-09-14T17:25:16.943Z,1.10
2022-09-14T17:27:47.558Z,1.35
2022-09-14T17:30:18.179Z,0.93
2022-09-14T17:32:48.802Z,1.63
2022-09-14T17:35:19.440Z,1.10
2022-09-14T17:37:50.381Z,1.70
2022-09-14T17:40:23.872Z,1.25
2022-09-14T17:42:54.067Z,1.30
2022-09-14T17:45:24.062Z,1.25
2022-09-14T17:47:54.320Z,1.30
2022-09-14T17:50:24.903Z,1.60
2022-09-14T17:52:55.205Z,1.40
2022-09-14T17:55:26.031Z,1.15
2022-09-14T17:57:56.599Z,1.02
2022-09-14T18:00:26.864Z,1.10
2022-09-14T18:02:57.420Z,1.05
2022-09-14T18:05:28.507Z,1.08
2022-09-14T18:07:59.579Z,1.30
2022-09-14T18:10:29.747Z,1.50
2022-09-14T18:13:00.323Z,1.67
2022-09-14T18:15:31.344Z,1.50
2022-09-14T18:18:01.873Z,1.50
2022-09-14T18:20:32.159Z,1.02
2022-09-14T18:23:02.688Z,1.10
2022-09-14T18:25:32.868Z,1.30
2022-09-14T18:28:03.594Z,1.35
2022-09-14T18:30:34.367Z,1.33
2022-09-14T18:33:05.027Z,1.50
2022-09-14T18:35:39.003Z,1.40
2022-09-14T18:38:09.990Z,1.40
2022-09-14T18:40:40.295Z,1.58
2022-09-14T18:43:10.964Z,1.17
2022-09-14T18:45:41.095Z,1.55
2022-09-14T18:48:11.303Z,1.50
2022-09-14T18:50:46.022Z,1.45
2022-09-14T18:53:16.223Z,1.25
2022-09-14T18:55:47.447Z,1.60
2022-09-14T18:58:17.698Z,1.42
2022-09-14T19:00:48.664Z,1.42
2022-09-14T19:03:18.932Z,1.33
2022-09-14T19:05:49.706Z,1.38
2022-09-14T19:08:19.818Z,1.52
2022-09-14T19:10:54.163Z,1.42
2022-09-14T19:13:24.381Z,1.10
2022-09-14T19:15:57.011Z,1.40
2022-09-14T19:18:27.194Z,1.33
2022-09-14T19:21:08.684Z,1.50
2022-09-14T19:23:39.201Z,1.52
2022-09-14T19:26:19.148Z,2.08
2022-09-14T19:28:49.508Z,1.42
2022-09-14T19:31:22.380Z,1.42
2022-09-14T19:33:53.319Z,1.20
2022-09-14T19:36:24.911Z,1.45
2022-09-14T19:38:55.662Z,1.52
2022-09-14T19:41:26.637Z,1.17
2022-09-14T19:43:56.915Z,1.30
2022-09-14T19:46:28.046Z,1.23
2022-09-14T19:48:58.593Z,1.30
2022-09-14T19:51:34.355Z,1.50
2022-09-14T19:54:04.541Z,1.38
2022-09-14T19:56:35.545Z,1.38
2022-09-14T19:59:08.281Z,1.35
2022-09-14T20:01:40.556Z,1.50
2022-09-14T20:04:11.836Z,1.52
2022-09-14T20:06:44.591Z,1.75
2022-09-14T20:09:23.413Z,1.90
2022-09-14T20:11:54.989Z,2.15
2022-09-14T20:14:26.872Z,1.65
2022-09-14T20:17:02.197Z,2.00
2022-09-14T20:22:04.606Z,1.67
2022-09-14T20:24:34.881Z,1.55
2022-09-14T20:27:05.598Z,1.63
2022-09-14T20:29:37.240Z,1.60
2022-09-14T20:32:08.131Z,1.90
2022-09-14T20:34:38.189Z,1.48
2022-09-14T20:37:08.622Z,1.25
2022-09-14T20:42:09.918Z,1.67
2022-09-14T20:44:39.957Z,1.90
2022-09-14T20:47:11.867Z,1.98
2022-09-14T20:49:42.271Z,1.92
2022-09-14T20:52:12.295Z,1.65
2022-09-14T20:54:42.739Z,1.70
2022-09-14T20:57:12.772Z,1.50
2022-09-14T20:59:43.241Z,1.75
2022-09-14T21:02:13.382Z,1.77
2022-09-14T21:04:43.823Z,1.73
2022-09-14T21:07:16.696Z,1.52
2022-09-14T21:09:47.272Z,1.85
2022-09-14T21:14:49.131Z,1.77
2022-09-14T21:17:19.370Z,1.52
2022-09-14T21:19:50.223Z,1.65
2022-09-14T21:22:23.347Z,2.30
2022-09-14T21:24:53.784Z,2.00
2022-09-14T21:27:23.863Z,1.80
2022-09-14T21:29:54.329Z,1.70
2022-09-14T21:32:24.892Z,1.60
2022-09-14T21:34:56.108Z,1.45
2022-09-14T21:37:27.822Z,1.90
2022-09-14T21:39:58.883Z,2.33
2022-09-14T21:42:31.145Z,1.92
2022-09-14T21:45:03.971Z,1.80
2022-09-14T21:47:34.387Z,2.00
2022-09-14T21:50:04.423Z,2.10
2022-09-14T21:52:34.751Z,1.90
2022-09-14T21:55:07.802Z,2.30
2022-09-14T21:57:38.190Z,2.10
2022-09-14T22:00:11.814Z,2.08
2022-09-14T22:02:42.744Z,2.60
2022-09-14T22:05:13.839Z,1.60
2022-09-14T22:07:44.359Z,1.90
2022-09-14T22:12:45.500Z,2.40
2022-09-14T22:15:17.010Z,1.90
2022-09-14T22:17:47.927Z,1.77
2022-09-14T22:20:18.401Z,1.83
2022-09-14T22:22:48.902Z,1.52
2022-09-14T22:25:19.331Z,2.75
2022-09-14T22:27:50.332Z,1.63
2022-09-14T22:30:20.703Z,1.92
2022-09-14T22:32:50.772Z,1.48
2022-09-14T22:35:21.086Z,1.50
2022-09-14T22:37:50.951Z,1.85
2022-09-14T22:40:21.302Z,2.20
2022-09-14T22:42:51.366Z,2.03
2022-09-14T22:45:21.775Z,2.10
2022-09-14T22:47:56.718Z,1.90
2022-09-14T22:50:27.141Z,2.05
2022-09-14T22:52:56.948Z,1.55
2022-09-14T22:55:27.275Z,1.38
2022-09-14T22:57:57.279Z,2.05
2022-09-14T23:00:27.632Z,1.85
2022-09-14T23:02:57.727Z,1.70
2022-09-14T23:05:28.214Z,1.92
2022-09-14T23:07:59.079Z,1.55
2022-09-14T23:10:29.623Z,2.13
2022-09-14T23:13:02.603Z,2.05
2022-09-14T23:15:33.177Z,2.22
2022-09-14T23:18:03.178Z,1.42
2022-09-14T23:20:37.685Z,2.03
2022-09-14T23:23:08.942Z,1.63
2022-09-14T23:25:41.053Z,1.80
2022-09-14T23:28:13.727Z,2.20
2022-09-14T23:30:44.123Z,1.95
2022-09-14T23:33:14.152Z,2.20
2022-09-14T23:35:49.069Z,2.35
2022-09-14T23:38:19.095Z,2.15
2022-09-14T23:40:50.776Z,2.10
2022-09-14T23:43:21.826Z,1.83
2022-09-14T23:45:51.802Z,1.92
2022-09-14T23:48:22.417Z,1.73
2022-09-14T23:53:32.170Z,1.83
2022-09-14T23:56:02.166Z,2.28
2022-09-14T23:58:32.905Z,1.80
